Time;durP1;ratioP1;P1;durP2;ratioP2;P2;SDS_P1;SDS_P2;PMS_P1;PMS_P2;Temp;Humidity;BMP_temperature;BMP_pressure;BME280_temperature;BME280_humidity;BME280_pressure;Samples;Min_cycle;Max_cycle;Signal;HPM_P1;HPM_P2
2020/12/01 00:01:06;;;;;;;;;;;17.80;41.50;;;;;;491652;240;1342;-52
2020/12/01 00:03:07;;;;;;;;;;;17.80;41.60;;;;;;491654;240;1186;-52
2020/12/01 00:05:08;;;;;;;;;;;17.80;41.50;;;;;;491801;240;1151;-53
2020/12/01 00:07:09;;;;;;;;;;;17.80;41.50;;;;;;491698;240;2176;-52
2020/12/01 00:09:13;;;;;;;;;;;17.90;41.60;;;;;;491798;240;1079;-53
2020/12/01 00:11:14;;;;;;;;;;;17.90;41.60;;;;;;491604;240;1053;-52
2020/12/01 00:13:16;;;;;;;;;;;17.90;41.50;;;;;;491694;240;990;-52
2020/12/01 00:15:17;;;;;;;;;;;17.90;41.60;;;;;;491835;240;1215;-53
2020/12/01 00:17:18;;;;;;;;;;;17.90;41.50;;;;;;491672;240;1203;-52
2020/12/01 00:19:20;;;;;;;;;;;17.90;41.50;;;;;;491660;240;1044;-52
2020/12/01 00:21:21;;;;;;;;;;;17.90;41.50;;;;;;491558;240;1238;-52
2020/12/01 00:23:23;;;;;;;;;;;17.90;41.50;;;;;;491646;240;1277;-53
2020/12/01 00:25:24;;;;;;;;;;;17.90;41.50;;;;;;491573;240;1324;-53
2020/12/01 00:27:25;;;;;;;;;;;17.90;41.50;;;;;;491590;240;2196;-52
2020/12/01 00:29:27;;;;;;;;;;;17.90;41.50;;;;;;491772;240;1056;-53
2020/12/01 00:31:28;;;;;;;;;;;17.90;41.50;;;;;;491533;240;1353;-52
2020/12/01 00:33:29;;;;;;;;;;;17.90;41.50;;;;;;491638;240;1052;-53
2020/12/01 00:35:30;;;;;;;;;;;17.90;41.40;;;;;;491920;240;1047;-53
2020/12/01 00:37:32;;;;;;;;;;;17.90;41.40;;;;;;491684;240;1055;-53
2020/12/01 00:39:33;;;;;;;;;;;17.90;41.40;;;;;;491830;240;1060;-52
2020/12/01 00:41:34;;;;;;;;;;;18.00;41.50;;;;;;491833;240;1055;-53
2020/12/01 00:43:36;;;;;;;;;;;17.90;41.40;;;;;;491649;240;1062;-52
2020/12/01 00:45:37;;;;;;;;;;;18.00;41.40;;;;;;491676;240;1041;-53
2020/12/01 00:47:38;;;;;;;;;;;18.00;41.50;;;;;;491639;240;2192;-53
2020/12/01 00:49:39;;;;;;;;;;;18.00;41.50;;;;;;492086;240;1065;-51
2020/12/01 00:51:41;;;;;;;;;;;18.00;41.40;;;;;;491934;240;1272;-52
2020/12/01 00:53:42;;;;;;;;;;;18.00;41.40;;;;;;491713;240;1073;-52
2020/12/01 00:55:43;;;;;;;;;;;18.00;41.40;;;;;;491930;240;1241;-52
2020/12/01 00:57:44;;;;;;;;;;;18.00;41.40;;;;;;491700;240;1311;-53
2020/12/01 00:59:46;;;;;;;;;;;18.00;41.40;;;;;;491848;240;1042;-52
2020/12/01 01:01:47;;;;;;;;;;;18.00;41.40;;;;;;491822;240;1278;-52
2020/12/01 01:03:48;;;;;;;;;;;18.00;41.40;;;;;;491612;240;1467;-53
2020/12/01 01:05:50;;;;;;;;;;;18.00;41.40;;;;;;491639;240;1078;-52
2020/12/01 01:07:51;;;;;;;;;;;18.00;41.40;;;;;;491648;240;2180;-53
2020/12/01 01:09:52;;;;;;;;;;;18.00;41.40;;;;;;491717;240;1222;-52
2020/12/01 01:11:54;;;;;;;;;;;18.00;41.30;;;;;;492185;240;1064;-52
2020/12/01 01:13:55;;;;;;;;;;;18.00;41.40;;;;;;491702;240;1222;-52
2020/12/01 01:15:56;;;;;;;;;;;18.00;41.40;;;;;;491670;240;1078;-53
2020/12/01 01:17:58;;;;;;;;;;;18.00;41.40;;;;;;491671;240;1312;-53
2020/12/01 01:19:59;;;;;;;;;;;18.00;41.30;;;;;;491659;240;1025;-52
2020/12/01 01:22:00;;;;;;;;;;;18.00;41.40;;;;;;491634;240;1285;-52
2020/12/01 01:24:01;;;;;;;;;;;18.10;41.30;;;;;;491640;240;1091;-53
2020/12/01 01:26:03;;;;;;;;;;;18.00;41.30;;;;;;491714;240;1092;-51
2020/12/01 01:28:04;;;;;;;;;;;18.00;41.30;;;;;;491953;240;2192;-52
2020/12/01 01:30:05;;;;;;;;;;;18.00;41.30;;;;;;492108;240;1054;-52
2020/12/01 01:32:06;;;;;;;;;;;18.00;41.30;;;;;;491891;240;1237;-53
2020/12/01 01:34:08;;;;;;;;;;;18.10;41.30;;;;;;491671;240;1005;-52
2020/12/01 01:36:09;;;;;;;;;;;18.10;41.30;;;;;;491672;240;1066;-53
2020/12/01 01:38:10;;;;;;;;;;;18.10;41.30;;;;;;491674;240;1048;-53
2020/12/01 01:40:12;;;;;;;;;;;18.10;41.30;;;;;;491687;240;1049;-53
2020/12/01 01:42:14;;;;;;;;;;;18.10;41.30;;;;;;491640;240;1100;-53
2020/12/01 01:44:14;;;;;;;;;;;18.10;41.30;;;;;;491776;240;1225;-52
2020/12/01 01:46:16;;;;;;;;;;;18.10;41.30;;;;;;491609;240;1062;-53
2020/12/01 01:48:17;;;;;;;;;;;18.10;41.30;;;;;;491818;240;2192;-53
2020/12/01 01:50:18;;;;;;;;;;;18.10;41.30;;;;;;491644;240;1236;-53
2020/12/01 01:52:20;;;;;;;;;;;18.10;41.30;;;;;;491829;240;1076;-52
2020/12/01 01:54:21;;;;;;;;;;;18.10;41.30;;;;;;491667;240;1127;-52
2020/12/01 01:56:23;;;;;;;;;;;18.10;41.20;;;;;;491619;240;974;-53
2020/12/01 01:58:24;;;;;;;;;;;18.10;41.30;;;;;;491693;240;1045;-53
2020/12/01 02:00:36;;;;;;;;;;;18.10;41.20;;;;;;491775;240;984;-52
2020/12/01 02:02:26;;;;;;;;;;;18.10;41.30;;;;;;491727;241;2146;-52
2020/12/01 02:04:28;;;;;;;;;;;18.10;41.20;;;;;;491660;240;1087;-52
2020/12/01 02:06:29;;;;;;;;;;;18.10;41.20;;;;;;491949;240;1230;-53
2020/12/01 02:08:30;;;;;;;;;;;18.10;41.20;;;;;;491656;240;2199;-53
2020/12/01 02:10:32;;;;;;;;;;;18.10;41.20;;;;;;491840;240;1065;-52
2020/12/01 02:12:33;;;;;;;;;;;18.10;41.20;;;;;;491671;240;1063;-52
2020/12/01 02:14:34;;;;;;;;;;;18.10;41.20;;;;;;491631;240;1172;-52
2020/12/01 02:16:35;;;;;;;;;;;18.20;41.20;;;;;;491607;238;1360;-52
2020/12/01 02:18:37;;;;;;;;;;;18.20;41.30;;;;;;491611;240;1180;-52
2020/12/01 02:20:38;;;;;;;;;;;18.20;41.20;;;;;;491666;240;1073;-53
2020/12/01 02:22:39;;;;;;;;;;;18.20;41.20;;;;;;491651;240;1054;-53
2020/12/01 02:24:40;;;;;;;;;;;18.20;41.20;;;;;;491886;240;994;-53
2020/12/01 02:26:43;;;;;;;;;;;18.20;41.20;;;;;;491647;240;1050;-53
2020/12/01 02:28:44;;;;;;;;;;;18.20;41.20;;;;;;491967;240;2184;-53
2020/12/01 02:30:45;;;;;;;;;;;18.20;40.00;;;;;;491784;240;1123;-52
2020/12/01 02:32:47;;;;;;;;;;;18.20;41.20;;;;;;491586;240;1183;-52
2020/12/01 02:34:48;;;;;;;;;;;18.20;41.20;;;;;;491614;240;1042;-52
2020/12/01 02:36:49;;;;;;;;;;;18.20;41.20;;;;;;491846;240;1138;-52
2020/12/01 02:38:50;;;;;;;;;;;18.20;41.20;;;;;;491706;240;1231;-52
2020/12/01 02:40:52;;;;;;;;;;;18.20;41.20;;;;;;491613;240;1052;-52
2020/12/01 02:42:53;;;;;;;;;;;18.20;41.20;;;;;;491619;240;1038;-52
2020/12/01 02:44:54;;;;;;;;;;;18.20;41.20;;;;;;491625;240;1066;-52
2020/12/01 02:46:56;;;;;;;;;;;18.20;41.20;;;;;;491655;240;1057;-52
2020/12/01 02:48:57;;;;;;;;;;;18.20;41.20;;;;;;491729;240;2196;-53
2020/12/01 02:50:58;;;;;;;;;;;18.20;41.10;;;;;;491687;240;1037;-52
2020/12/01 02:52:59;;;;;;;;;;;18.20;41.20;;;;;;491943;240;1078;-52
2020/12/01 02:55:01;;;;;;;;;;;18.20;41.10;;;;;;491671;240;1072;-53
2020/12/01 02:57:02;;;;;;;;;;;18.20;41.10;;;;;;491648;240;1048;-52
2020/12/01 02:59:04;;;;;;;;;;;18.20;41.10;;;;;;491906;240;1102;-53
2020/12/01 03:01:05;;;;;;;;;;;18.20;41.10;;;;;;491632;240;1094;-52
2020/12/01 03:03:06;;;;;;;;;;;18.20;41.10;;;;;;491600;240;1192;-52
2020/12/01 03:05:07;;;;;;;;;;;18.20;41.10;;;;;;491590;240;1083;-53
2020/12/01 03:07:09;;;;;;;;;;;18.20;41.10;;;;;;491747;240;1063;-53
2020/12/01 03:09:10;;;;;;;;;;;18.20;41.10;;;;;;491856;240;2188;-52
2020/12/01 03:11:11;;;;;;;;;;;18.20;41.10;;;;;;491670;240;1057;-53
2020/12/01 03:13:13;;;;;;;;;;;18.20;41.10;;;;;;491685;240;1195;-52
2020/12/01 03:15:15;;;;;;;;;;;18.30;41.10;;;;;;491664;240;1039;-52
2020/12/01 03:17:15;;;;;;;;;;;18.30;41.10;;;;;;491672;240;1995;-52
2020/12/01 03:19:16;;;;;;;;;;;18.30;41.10;;;;;;491838;240;1187;-52
2020/12/01 03:21:18;;;;;;;;;;;18.30;41.10;;;;;;491848;240;1028;-53
2020/12/01 03:23:19;;;;;;;;;;;18.30;41.10;;;;;;491628;240;1071;-52
2020/12/01 03:25:20;;;;;;;;;;;18.30;41.10;;;;;;491612;240;1040;-52
2020/12/01 03:27:22;;;;;;;;;;;18.30;41.20;;;;;;491760;240;1044;-52
2020/12/01 03:29:23;;;;;;;;;;;18.30;41.10;;;;;;491643;240;2192;-53
2020/12/01 03:31:24;;;;;;;;;;;18.30;41.10;;;;;;491598;240;1142;-52
2020/12/01 03:33:26;;;;;;;;;;;18.30;41.10;;;;;;491712;240;1136;-52
2020/12/01 03:35:27;;;;;;;;;;;18.30;41.10;;;;;;491620;240;1320;-52
2020/12/01 03:37:28;;;;;;;;;;;18.30;41.10;;;;;;491626;240;1306;-52
2020/12/01 03:39:30;;;;;;;;;;;18.30;41.10;;;;;;491982;242;1081;-52
2020/12/01 03:41:31;;;;;;;;;;;18.30;41.10;;;;;;491628;240;1255;-53
2020/12/01 03:43:32;;;;;;;;;;;18.30;41.00;;;;;;492071;240;1028;-52
2020/12/01 03:45:33;;;;;;;;;;;18.30;41.00;;;;;;491622;240;1245;-53
2020/12/01 03:47:35;;;;;;;;;;;18.30;41.00;;;;;;491627;240;2176;-53
2020/12/01 03:49:36;;;;;;;;;;;18.30;41.00;;;;;;491681;240;1188;-52
2020/12/01 03:51:37;;;;;;;;;;;18.30;41.00;;;;;;491626;240;1214;-52
2020/12/01 03:53:39;;;;;;;;;;;18.30;41.00;;;;;;491696;240;1024;-53
2020/12/01 03:55:40;;;;;;;;;;;18.40;41.10;;;;;;491663;238;1346;-53
2020/12/01 03:57:41;;;;;;;;;;;18.30;41.00;;;;;;491656;240;1747;-53
2020/12/01 03:59:42;;;;;;;;;;;18.40;41.00;;;;;;491702;240;1017;-52
2020/12/01 04:01:44;;;;;;;;;;;18.40;41.00;;;;;;491637;240;1030;-53
2020/12/01 04:03:45;;;;;;;;;;;18.30;41.00;;;;;;491827;240;1194;-53
2020/12/01 04:05:46;;;;;;;;;;;18.40;41.00;;;;;;491650;240;1176;-53
2020/12/01 04:07:48;;;;;;;;;;;18.40;41.00;;;;;;491723;240;2181;-53
2020/12/01 04:09:49;;;;;;;;;;;18.40;41.10;;;;;;491661;240;1052;-53
2020/12/01 04:11:50;;;;;;;;;;;18.40;41.00;;;;;;491643;240;975;-53
2020/12/01 04:13:51;;;;;;;;;;;18.40;41.00;;;;;;491837;240;1056;-52
2020/12/01 04:15:53;;;;;;;;;;;18.40;41.00;;;;;;492050;240;1034;-53
2020/12/01 04:17:54;;;;;;;;;;;18.40;41.00;;;;;;491901;240;1239;-52
2020/12/01 04:19:55;;;;;;;;;;;18.40;41.00;;;;;;491907;240;1291;-52
2020/12/01 04:21:56;;;;;;;;;;;18.40;41.00;;;;;;491670;240;1063;-52
2020/12/01 04:23:58;;;;;;;;;;;18.40;41.00;;;;;;491656;240;1094;-53
2020/12/01 04:25:59;;;;;;;;;;;18.40;41.00;;;;;;491666;240;1054;-53
2020/12/01 04:28:00;;;;;;;;;;;18.40;41.00;;;;;;491881;240;2184;-53
2020/12/01 04:30:02;;;;;;;;;;;18.40;41.00;;;;;;492162;240;1059;-52
2020/12/01 04:32:03;;;;;;;;;;;18.40;41.00;;;;;;491831;240;1224;-54
2020/12/01 04:34:04;;;;;;;;;;;18.40;41.00;;;;;;491614;240;1088;-53
2020/12/01 04:36:05;;;;;;;;;;;18.40;41.00;;;;;;491633;240;1208;-52
2020/12/01 04:38:07;;;;;;;;;;;18.40;41.00;;;;;;491704;240;1285;-53
2020/12/01 04:40:08;;;;;;;;;;;18.40;41.00;;;;;;491645;240;1230;-52
2020/12/01 04:42:09;;;;;;;;;;;18.40;40.90;;;;;;491623;240;1043;-51
2020/12/01 04:44:11;;;;;;;;;;;18.40;40.90;;;;;;491642;240;1135;-52
2020/12/01 04:46:12;;;;;;;;;;;18.40;41.00;;;;;;491616;240;1096;-53
2020/12/01 04:48:13;;;;;;;;;;;18.40;40.90;;;;;;491656;240;2176;-53
2020/12/01 04:50:14;;;;;;;;;;;18.40;40.90;;;;;;491643;240;1207;-53
2020/12/01 04:52:16;;;;;;;;;;;18.40;40.90;;;;;;491616;240;1269;-52
2020/12/01 04:54:17;;;;;;;;;;;18.40;40.90;;;;;;491884;240;1082;-52
2020/12/01 04:56:19;;;;;;;;;;;18.40;40.90;;;;;;491553;240;1049;-52
2020/12/01 04:58:20;;;;;;;;;;;18.50;40.90;;;;;;491735;240;1185;-53
2020/12/01 05:00:21;;;;;;;;;;;18.50;40.90;;;;;;491606;240;1137;-53
2020/12/01 05:02:23;;;;;;;;;;;18.50;41.00;;;;;;491637;240;1142;-52
2020/12/01 05:04:26;;;;;;;;;;;18.50;41.00;;;;;;491718;240;1190;-53
2020/12/01 05:06:33;;;;;;;;;;;18.50;41.00;;;;;;491634;240;2258;-53
2020/12/01 05:08:31;;;;;;;;;;;18.50;40.90;;;;;;491545;242;2194;-53
2020/12/01 05:10:31;;;;;;;;;;;18.50;40.90;;;;;;491631;240;1312;-53
2020/12/01 05:12:33;;;;;;;;;;;18.50;40.90;;;;;;491645;240;1725;-52
2020/12/01 05:14:33;;;;;;;;;;;18.50;40.90;;;;;;491681;240;2318;-52
2020/12/01 05:16:35;;;;;;;;;;;18.50;40.90;;;;;;491556;240;1170;-52
2020/12/01 05:18:36;;;;;;;;;;;18.50;40.90;;;;;;491609;240;1040;-53
2020/12/01 05:20:37;;;;;;;;;;;18.50;40.90;;;;;;491624;240;1461;-53
2020/12/01 05:22:38;;;;;;;;;;;18.50;40.90;;;;;;491586;240;1146;-52
2020/12/01 05:24:40;;;;;;;;;;;18.50;40.80;;;;;;491574;240;1057;-53
2020/12/01 05:26:41;;;;;;;;;;;18.50;40.90;;;;;;491494;240;1198;-52
2020/12/01 05:28:42;;;;;;;;;;;18.50;40.90;;;;;;491450;240;2180;-53
2020/12/01 05:30:43;;;;;;;;;;;18.50;40.80;;;;;;491399;240;1193;-52
2020/12/01 05:32:45;;;;;;;;;;;18.50;40.80;;;;;;491477;240;1191;-53
2020/12/01 05:34:46;;;;;;;;;;;18.50;40.80;;;;;;491432;238;1331;-52
2020/12/01 05:36:48;;;;;;;;;;;18.50;40.80;;;;;;491457;240;1143;-53
2020/12/01 05:38:49;;;;;;;;;;;18.50;40.80;;;;;;491459;240;1147;-53
2020/12/01 05:40:50;;;;;;;;;;;18.50;40.80;;;;;;491517;240;1065;-53
2020/12/01 05:42:51;;;;;;;;;;;18.50;40.80;;;;;;491452;240;1021;-53
2020/12/01 05:44:53;;;;;;;;;;;18.50;40.80;;;;;;491387;240;1089;-52
2020/12/01 05:46:54;;;;;;;;;;;18.50;40.80;;;;;;491393;240;1068;-53
2020/12/01 05:48:57;;;;;;;;;;;18.50;40.80;;;;;;491348;240;2187;-52
2020/12/01 05:50:57;;;;;;;;;;;18.50;40.80;;;;;;491331;240;2290;-53
2020/12/01 05:52:58;;;;;;;;;;;18.50;40.80;;;;;;491456;240;1064;-53
2020/12/01 05:55:00;;;;;;;;;;;18.50;40.80;;;;;;491488;240;1061;-52
2020/12/01 05:57:01;;;;;;;;;;;18.60;40.90;;;;;;491451;240;1044;-53
2020/12/01 05:59:03;;;;;;;;;;;18.60;40.80;;;;;;491442;240;1058;-53
2020/12/01 06:01:04;;;;;;;;;;;18.60;40.80;;;;;;491389;240;1131;-52
2020/12/01 06:03:05;;;;;;;;;;;18.60;40.80;;;;;;491448;240;1165;-52
2020/12/01 06:05:06;;;;;;;;;;;18.60;40.80;;;;;;491473;240;1062;-52
2020/12/01 06:07:07;;;;;;;;;;;18.60;40.80;;;;;;491474;240;1183;-53
2020/12/01 06:09:09;;;;;;;;;;;18.60;40.80;;;;;;491452;240;2163;-53
2020/12/01 06:11:10;;;;;;;;;;;18.60;40.80;;;;;;491372;240;1079;-52
2020/12/01 06:13:11;;;;;;;;;;;18.60;40.80;;;;;;491392;240;1098;-53
2020/12/01 06:15:12;;;;;;;;;;;18.60;40.80;;;;;;491324;240;1105;-52
2020/12/01 06:17:14;;;;;;;;;;;18.60;40.80;;;;;;491535;240;1113;-53
2020/12/01 06:19:15;;;;;;;;;;;18.60;40.80;;;;;;491429;240;1098;-52
2020/12/01 06:21:16;;;;;;;;;;;18.60;40.80;;;;;;491510;240;1195;-52
2020/12/01 06:23:18;;;;;;;;;;;18.60;40.70;;;;;;491435;240;1034;-52
2020/12/01 06:25:19;;;;;;;;;;;18.60;40.70;;;;;;491653;240;1080;-52
2020/12/01 06:27:20;;;;;;;;;;;18.60;40.80;;;;;;491445;240;1096;-53
2020/12/01 06:29:23;;;;;;;;;;;18.60;40.80;;;;;;491442;240;2188;-52
2020/12/01 06:31:24;;;;;;;;;;;18.60;40.70;;;;;;491346;240;1046;-53
2020/12/01 06:33:26;;;;;;;;;;;18.60;40.80;;;;;;491316;240;1032;-52
2020/12/01 06:35:28;;;;;;;;;;;18.60;40.70;;;;;;491428;240;1210;-52
2020/12/01 06:37:29;;;;;;;;;;;18.60;40.70;;;;;;491348;240;1175;-53
2020/12/01 06:39:30;;;;;;;;;;;18.60;40.80;;;;;;491375;240;1129;-53
2020/12/01 06:41:31;;;;;;;;;;;18.70;40.80;;;;;;491323;240;1041;-52
2020/12/01 06:43:33;;;;;;;;;;;18.60;40.70;;;;;;491184;240;1096;-53
2020/12/01 06:45:34;;;;;;;;;;;18.60;40.70;;;;;;491128;240;1075;-53
2020/12/01 06:47:36;;;;;;;;;;;18.60;40.70;;;;;;491025;240;1263;-52
2020/12/01 06:49:37;;;;;;;;;;;18.70;40.70;;;;;;491059;240;2183;-52
2020/12/01 06:51:38;;;;;;;;;;;18.70;40.70;;;;;;491004;240;1229;-53
2020/12/01 06:53:40;;;;;;;;;;;18.70;40.70;;;;;;491131;240;1225;-52
2020/12/01 06:55:41;;;;;;;;;;;18.70;40.70;;;;;;491124;240;1217;-52
2020/12/01 06:57:42;;;;;;;;;;;18.70;40.70;;;;;;491196;240;1063;-53
2020/12/01 06:59:44;;;;;;;;;;;18.70;40.70;;;;;;491280;240;1073;-53
2020/12/01 07:01:45;;;;;;;;;;;18.60;40.60;;;;;;491314;240;1038;-52
2020/12/01 07:03:46;;;;;;;;;;;18.70;40.70;;;;;;491082;240;1236;-52
2020/12/01 07:05:48;;;;;;;;;;;18.70;40.70;;;;;;491045;240;1174;-52
2020/12/01 07:07:49;;;;;;;;;;;18.70;40.70;;;;;;491159;240;1209;-53
2020/12/01 07:09:52;;;;;;;;;;;18.70;40.70;;;;;;491164;240;2176;-52
2020/12/01 07:11:51;;;;;;;;;;;18.70;40.70;;;;;;491288;241;2319;-52
2020/12/01 07:13:53;;;;;;;;;;;18.70;40.70;;;;;;491209;240;1047;-53
2020/12/01 07:15:54;;;;;;;;;;;18.70;39.40;;;;;;491206;240;1082;-53
2020/12/01 07:17:55;;;;;;;;;;;18.70;40.70;;;;;;491119;240;1061;-52
2020/12/01 07:19:57;;;;;;;;;;;18.70;40.60;;;;;;491264;240;1222;-53
2020/12/01 07:21:58;;;;;;;;;;;18.70;40.70;;;;;;491156;240;1174;-52
2020/12/01 07:23:59;;;;;;;;;;;18.70;40.60;;;;;;491158;240;1142;-52
2020/12/01 07:26:01;;;;;;;;;;;18.70;40.70;;;;;;491123;240;1105;-52
2020/12/01 07:28:02;;;;;;;;;;;18.70;40.60;;;;;;490987;240;1198;-53
2020/12/01 07:30:03;;;;;;;;;;;18.70;40.60;;;;;;490818;240;2184;-53
2020/12/01 07:32:05;;;;;;;;;;;18.70;40.70;;;;;;491082;240;1066;-52
2020/12/01 07:34:06;;;;;;;;;;;18.70;40.60;;;;;;491061;240;1277;-52
2020/12/01 07:36:07;;;;;;;;;;;18.70;39.30;;;;;;490648;240;1278;-53
2020/12/01 07:38:09;;;;;;;;;;;18.70;39.30;;;;;;490980;240;1220;-53
2020/12/01 07:40:10;;;;;;;;;;;18.70;40.60;;;;;;490806;240;1347;-52
2020/12/01 07:42:11;;;;;;;;;;;18.70;40.60;;;;;;490794;240;1174;-52
2020/12/01 07:44:14;;;;;;;;;;;18.80;40.70;;;;;;490889;240;1112;-53
2020/12/01 07:46:14;;;;;;;;;;;18.70;40.60;;;;;;490976;240;2279;-52
2020/12/01 07:48:15;;;;;;;;;;;18.80;39.40;;;;;;490994;240;1157;-53
2020/12/01 07:50:20;;;;;;;;;;;18.70;40.60;;;;;;490989;240;2180;-53
2020/12/01 07:52:19;;;;;;;;;;;18.70;40.60;;;;;;490933;242;2197;-53
2020/12/01 07:54:20;;;;;;;;;;;18.70;40.60;;;;;;491020;240;1176;-53
2020/12/01 07:56:21;;;;;;;;;;;18.80;40.60;;;;;;490920;240;1065;-52
2020/12/01 07:58:22;;;;;;;;;;;18.80;40.70;;;;;;490996;240;1140;-53
2020/12/01 08:00:24;;;;;;;;;;;18.80;40.60;;;;;;490942;240;1086;-52
2020/12/01 08:02:25;;;;;;;;;;;18.80;40.60;;;;;;491052;240;1219;-53
2020/12/01 08:04:27;;;;;;;;;;;18.80;40.60;;;;;;490876;240;1196;-52
2020/12/01 08:06:28;;;;;;;;;;;18.80;40.60;;;;;;490869;240;1083;-52
2020/12/01 08:08:29;;;;;;;;;;;18.80;40.60;;;;;;490864;240;1436;-52
2020/12/01 08:10:31;;;;;;;;;;;18.80;40.60;;;;;;490923;240;2184;-52
2020/12/01 08:12:32;;;;;;;;;;;18.80;40.60;;;;;;490848;240;1321;-53
2020/12/01 08:14:33;;;;;;;;;;;18.80;40.60;;;;;;490820;240;1187;-53
2020/12/01 08:16:34;;;;;;;;;;;18.80;40.60;;;;;;490700;240;1335;-53
2020/12/01 08:18:36;;;;;;;;;;;18.80;40.60;;;;;;490771;240;1123;-52
2020/12/01 08:20:37;;;;;;;;;;;18.80;40.60;;;;;;490786;240;1078;-52
2020/12/01 08:22:38;;;;;;;;;;;18.80;40.60;;;;;;490736;240;1189;-52
2020/12/01 08:24:42;;;;;;;;;;;18.80;40.60;;;;;;490714;240;1049;-53
2020/12/01 08:26:41;;;;;;;;;;;18.80;40.60;;;;;;490760;242;2326;-53
2020/12/01 08:28:42;;;;;;;;;;;18.80;40.60;;;;;;490876;240;1068;-53
2020/12/01 08:30:44;;;;;;;;;;;18.80;40.60;;;;;;490861;240;2199;-53
2020/12/01 08:32:45;;;;;;;;;;;18.80;40.60;;;;;;490872;240;1084;-53
2020/12/01 08:34:49;;;;;;;;;;;18.80;40.60;;;;;;490733;240;1152;-53
2020/12/01 08:36:48;;;;;;;;;;;18.80;39.20;;;;;;490700;241;2295;-52
2020/12/01 08:38:49;;;;;;;;;;;18.80;40.60;;;;;;490915;240;1221;-53
2020/12/01 08:40:50;;;;;;;;;;;18.80;40.50;;;;;;490917;240;1103;-52
2020/12/01 08:42:52;;;;;;;;;;;18.80;40.60;;;;;;490907;240;1108;-53
2020/12/01 08:44:53;;;;;;;;;;;18.80;40.50;;;;;;491048;240;1085;-52
2020/12/01 08:46:54;;;;;;;;;;;18.80;40.50;;;;;;491086;240;1083;-53
2020/12/01 08:49:06;;;;;;;;;;;18.80;40.50;;;;;;490835;240;1082;-52
2020/12/01 08:50:58;;;;;;;;;;;18.80;40.50;;;;;;490656;242;2409;-53
2020/12/01 08:53:00;;;;;;;;;;;18.80;40.60;;;;;;490753;240;1179;-53
2020/12/01 08:55:01;;;;;;;;;;;18.80;40.50;;;;;;490842;240;1272;-53
2020/12/01 08:57:02;;;;;;;;;;;18.80;40.50;;;;;;491076;240;1191;-52
2020/12/01 08:59:04;;;;;;;;;;;18.80;40.50;;;;;;490816;240;1163;-53
2020/12/01 09:01:05;;;;;;;;;;;18.80;40.60;;;;;;490893;240;1222;-53
2020/12/01 09:03:06;;;;;;;;;;;18.80;40.60;;;;;;490759;240;1071;-53
2020/12/01 09:05:08;;;;;;;;;;;18.80;40.50;;;;;;490795;240;1195;-53
2020/12/01 09:07:09;;;;;;;;;;;18.80;39.20;;;;;;491055;240;1162;-52
2020/12/01 09:09:14;;;;;;;;;;;18.80;40.60;;;;;;490981;240;1202;-52
2020/12/01 09:13:35;;;;;;;;;;;18.80;40.50;;;;;;480973;241;1140;-53
2020/12/01 09:15:43;;;;;;;;;;;18.80;39.20;;;;;;490744;242;1445;-53
2020/12/01 09:17:48;;;;;;;;;;;18.80;40.50;;;;;;490749;242;2230;-52
2020/12/01 09:22:08;;;;;;;;;;;18.80;40.50;;;;;;490863;241;1771;-53
2020/12/01 09:24:10;;;;;;;;;;;18.90;40.50;;;;;;490664;240;1195;-52
2020/12/01 09:26:11;;;;;;;;;;;18.90;40.50;;;;;;490544;240;1437;-52
2020/12/01 09:28:12;;;;;;;;;;;18.90;40.50;;;;;;490598;240;1194;-52
2020/12/01 09:30:14;;;;;;;;;;;18.90;40.60;;;;;;490702;240;2164;-52
2020/12/01 09:32:15;;;;;;;;;;;18.90;39.20;;;;;;490647;240;1124;-53
2020/12/01 09:34:17;;;;;;;;;;;18.90;40.60;;;;;;490900;240;1218;-52
2020/12/01 09:36:18;;;;;;;;;;;18.90;40.50;;;;;;490974;240;1120;-53
2020/12/01 09:38:19;;;;;;;;;;;18.90;40.50;;;;;;490932;240;1274;-53
2020/12/01 09:40:21;;;;;;;;;;;18.90;40.50;;;;;;490915;240;1091;-53
2020/12/01 09:42:28;;;;;;;;;;;18.90;40.50;;;;;;490847;240;1116;-53
2020/12/01 09:44:47;;;;;;;;;;;18.90;39.20;;;;;;490770;242;2477;-53
2020/12/01 09:46:48;;;;;;;;;;;18.90;40.50;;;;;;490597;242;2292;-52
2020/12/01 09:48:47;;;;;;;;;;;18.90;40.50;;;;;;490868;242;2237;-52
2020/12/01 09:50:44;;;;;;;;;;;18.90;40.60;;;;;;490884;242;2191;-53
2020/12/01 09:55:11;;;;;;;;;;;18.90;39.20;;;;;;490656;242;1703;-53
2020/12/01 09:57:11;;;;;;;;;;;18.90;40.50;;;;;;490758;242;2220;-53
2020/12/01 09:59:29;;;;;;;;;;;18.90;39.20;;;;;;490704;241;2273;-52
2020/12/01 10:08:30;;;;;;;;;;;18.90;40.50;;;;;;490752;240;2050;-53
2020/12/01 10:12:55;;;;;;;;;;;18.90;40.50;;;;;;480379;241;1240;-52
2020/12/01 10:17:50;;;;;;;;;;;18.90;40.50;;;;;;490894;240;1108;-53
2020/12/01 10:27:21;;;;;;;;;;;18.90;40.40;;;;;;490789;242;1230;-53
2020/12/01 10:32:09;;;;;;;;;;;18.90;39.10;;;;;;473610;250;2197;-53
2020/12/01 10:34:24;;;;;;;;;;;19.00;40.50;;;;;;484628;241;2194;-52
2020/12/01 10:36:22;;;;;;;;;;;19.00;40.50;;;;;;490645;242;2146;-52
2020/12/01 10:38:23;;;;;;;;;;;19.00;39.10;;;;;;490696;240;1117;-53
2020/12/01 10:40:24;;;;;;;;;;;19.00;40.40;;;;;;490845;240;1341;-52
2020/12/01 10:42:25;;;;;;;;;;;19.00;40.50;;;;;;490875;240;1197;-53
2020/12/01 10:44:27;;;;;;;;;;;19.00;39.20;;;;;;490795;240;1088;-52
2020/12/01 10:46:28;;;;;;;;;;;19.00;40.50;;;;;;490808;240;1210;-53
2020/12/01 10:48:29;;;;;;;;;;;19.00;40.50;;;;;;491095;240;1040;-53
2020/12/01 10:50:31;;;;;;;;;;;19.00;40.40;;;;;;490681;240;2184;-53
2020/12/01 10:52:32;;;;;;;;;;;19.00;40.50;;;;;;490682;240;1251;-53
2020/12/01 10:54:34;;;;;;;;;;;19.00;40.50;;;;;;490956;240;1175;-53
2020/12/01 10:56:35;;;;;;;;;;;19.00;39.20;;;;;;490916;240;1084;-53
2020/12/01 10:58:36;;;;;;;;;;;19.00;40.40;;;;;;491006;240;1033;-53
2020/12/01 11:00:38;;;;;;;;;;;19.00;40.40;;;;;;490897;240;1098;-52
2020/12/01 11:02:39;;;;;;;;;;;19.00;40.40;;;;;;490928;240;1161;-53
2020/12/01 11:04:40;;;;;;;;;;;19.00;40.40;;;;;;490856;240;1197;-53
2020/12/01 11:06:41;;;;;;;;;;;19.00;40.40;;;;;;490740;240;1134;-53
2020/12/01 11:08:43;;;;;;;;;;;19.00;39.10;;;;;;490676;240;1311;-53
2020/12/01 11:10:44;;;;;;;;;;;19.00;40.40;;;;;;490601;240;2193;-52
2020/12/01 11:12:46;;;;;;;;;;;19.00;40.40;;;;;;490654;240;1091;-52
2020/12/01 11:14:48;;;;;;;;;;;19.00;40.40;;;;;;490788;240;1075;-52
2020/12/01 11:16:48;;;;;;;;;;;19.00;40.40;;;;;;490685;240;1765;-52
2020/12/01 11:18:50;;;;;;;;;;;19.00;39.10;;;;;;490844;240;1178;-54
2020/12/01 11:20:51;;;;;;;;;;;19.00;40.40;;;;;;490861;240;1091;-53
2020/12/01 11:22:52;;;;;;;;;;;19.00;40.40;;;;;;490832;240;1054;-52
2020/12/01 11:24:54;;;;;;;;;;;19.00;40.40;;;;;;490995;240;1226;-53
2020/12/01 11:26:55;;;;;;;;;;;19.00;40.40;;;;;;490918;240;1232;-53
2020/12/01 11:28:57;;;;;;;;;;;19.00;40.40;;;;;;490767;240;1248;-52
2020/12/01 11:30:58;;;;;;;;;;;19.00;39.10;;;;;;490746;240;2179;-53
2020/12/01 11:33:00;;;;;;;;;;;19.00;40.40;;;;;;490722;240;1103;-52
2020/12/01 11:35:01;;;;;;;;;;;19.00;40.40;;;;;;490875;240;1193;-52
2020/12/01 11:37:03;;;;;;;;;;;19.00;40.40;;;;;;490808;240;1253;-52
2020/12/01 11:39:04;;;;;;;;;;;19.00;40.40;;;;;;490849;240;1111;-52
2020/12/01 11:41:05;;;;;;;;;;;19.10;41.00;;;;;;490708;240;1171;-52
2020/12/01 11:43:07;;;;;;;;;;;19.10;40.50;;;;;;490774;240;1158;-52
2020/12/01 11:45:08;;;;;;;;;;;19.10;40.30;;;;;;490908;240;1081;-52
2020/12/01 11:47:10;;;;;;;;;;;19.20;40.30;;;;;;490904;240;1077;-52
2020/12/01 11:49:11;;;;;;;;;;;19.00;39.20;;;;;;490862;240;1059;-52
2020/12/01 11:51:12;;;;;;;;;;;19.00;40.50;;;;;;490972;240;2195;-52
2020/12/01 11:53:13;;;;;;;;;;;18.90;39.30;;;;;;490941;240;1164;-53
2020/12/01 11:55:15;;;;;;;;;;;18.90;40.70;;;;;;490693;238;1291;-53
2020/12/01 11:57:16;;;;;;;;;;;18.90;40.80;;;;;;490793;240;1113;-52
2020/12/01 11:59:18;;;;;;;;;;;18.80;39.60;;;;;;490735;240;1098;-52
2020/12/01 12:01:19;;;;;;;;;;;18.80;41.00;;;;;;490787;240;1056;-52
2020/12/01 12:03:20;;;;;;;;;;;18.70;41.10;;;;;;490756;240;1234;-53
2020/12/01 12:05:21;;;;;;;;;;;18.70;41.10;;;;;;490707;240;1080;-52
2020/12/01 12:07:23;;;;;;;;;;;18.60;41.20;;;;;;490743;240;1090;-53
2020/12/01 12:09:24;;;;;;;;;;;18.50;40.00;;;;;;490830;240;1193;-52
2020/12/01 12:11:26;;;;;;;;;;;18.50;40.10;;;;;;490867;240;2196;-52
2020/12/01 12:13:27;;;;;;;;;;;18.50;40.20;;;;;;490811;240;1117;-52
2020/12/01 12:15:28;;;;;;;;;;;18.40;40.20;;;;;;490739;240;1071;-52
2020/12/01 12:17:30;;;;;;;;;;;18.40;41.50;;;;;;490634;240;1179;-52
2020/12/01 12:19:31;;;;;;;;;;;18.40;41.60;;;;;;490678;240;1148;-52
2020/12/01 12:21:32;;;;;;;;;;;18.30;41.60;;;;;;490676;240;1226;-52
2020/12/01 12:23:33;;;;;;;;;;;18.30;40.40;;;;;;490745;240;1085;-53
2020/12/01 12:25:35;;;;;;;;;;;18.30;41.80;;;;;;490887;240;1198;-53
2020/12/01 12:27:36;;;;;;;;;;;18.30;41.80;;;;;;490752;240;1184;-52